Main page
METAR-TAF:

METAR-TAF

Airports :

Ouarzazate Airport

Ouarzazate, Morocco

latitude: 30-56N, longitude: 006-54W, elevation: 1139 m

Current weather observation

The report was made 20 minutes ago, at 05:00 UTC
Wind 3 kt from the Northwest
Temperature 3°C
Humidity 35%
Pressure 1022 hPa
Visibility 10 km or more
no clouds below 1500 m and no cumulonimbus

METAR: GMMZ 090500Z 31003KT CAVOK 03/M11 Q1022 NOSIG

Time: 06:20 (05:20 UTC)

Forecast

The report was made 6 hours and 20 minutes ago, at 23:00 UTC
Forecast valid from 09 at 00 UTC to 10 at 06 UTC
Wind 6 kt from the West/Northwest
Visibility 10 km or more
no clouds below 1500 m and no cumulonimbus

TAF: GMMZ 082300Z 0900/1006 30006KT CAVOK

Weather observations and forecasts of more than 4000 airports (METAR and TAF reports).

The available stations are represented by yellow and red dots on the map.

Hover mouse over dot to see the name of the station.

Then click to see weather observations and forecasts.

To change the map : click on the green buttons with a black cross to zoom in, on the green button with a dash to zoom out, or on the green arrows for adjacent maps.


METAR-TAF: